Time;durP1;ratioP1;P1;durP2;ratioP2;P2;SDS_P1;SDS_P2;PMS_P1;PMS_P2;Temp;Humidity;BMP_temperature;BMP_pressure;BME280_temperature;BME280_humidity;BME280_pressure;Samples;Min_cycle;Max_cycle;Signal;HPM_P1;HPM_P2
2021/03/01 00:02:19;;;;;;;50.08;26.52;;;;;;;-0.09;74.32;97458.88;5078011;28;20361;-87
2021/03/01 00:04:45;;;;;;;49.22;26.65;;;;;;;0.01;75.18;97440.69;5078968;28;20054;-87
2021/03/01 00:07:10;;;;;;;49.67;25.92;;;;;;;0.03;74.07;97431.16;5078972;28;20024;-87
2021/03/01 00:09:35;;;;;;;44.20;24.52;;;;;;;0.16;74.01;97447.72;5094722;28;20052;-86
2021/03/01 00:12:01;;;;;;;40.22;24.98;;;;;;;0.34;75.39;97470.13;5077684;28;20025;-87
2021/03/01 00:14:26;;;;;;;43.70;25.00;;;;;;;0.47;74.61;97468.72;5079236;28;20028;-86
2021/03/01 00:16:54;;;;;;;39.72;25.02;;;;;;;0.36;74.31;97475.84;5077196;28;20021;-87
2021/03/01 00:19:19;;;;;;;43.28;23.75;;;;;;;0.07;75.40;97421.31;5078535;28;20032;-87
2021/03/01 00:21:44;;;;;;;50.95;28.35;;;;;;;0.19;75.26;97420.28;5077616;28;20016;-87
2021/03/01 00:24:10;;;;;;;52.15;27.42;;;;;;;-0.34;75.57;97354.38;5077612;28;20115;-87
2021/03/01 00:26:35;;;;;;;41.33;23.98;;;;;;;0.19;74.14;97399.69;5077634;28;20020;-86
2021/03/01 00:29:01;;;;;;;45.25;25.58;;;;;;;0.66;75.06;97481.19;5077442;28;20040;-87
2021/03/01 00:31:26;;;;;;;41.83;21.77;;;;;;;0.72;74.62;97468.25;5077380;28;20031;-87
2021/03/01 00:33:52;;;;;;;36.67;21.77;;;;;;;0.41;73.69;97432.00;5077412;28;20392;-87
2021/03/01 00:36:17;;;;;;;36.05;21.85;;;;;;;0.13;74.14;97401.13;5077246;28;20054;-87
2021/03/01 00:38:43;;;;;;;32.05;20.30;;;;;;;0.42;73.95;97431.63;5077206;28;20024;-86
2021/03/01 00:41:08;;;;;;;32.45;20.42;;;;;;;0.34;74.01;97423.91;5078153;28;20031;-86
2021/03/01 00:43:34;;;;;;;33.85;21.15;;;;;;;0.35;73.42;97417.44;5078080;28;20032;-87
2021/03/01 00:45:59;;;;;;;36.85;22.00;;;;;;;0.58;73.22;97433.31;5077108;28;20027;-86
2021/03/01 00:48:26;;;;;;;36.90;20.73;;;;;;;0.92;72.94;97468.84;5076919;28;20321;-86
2021/03/01 00:50:52;;;;;;;33.33;20.85;;;;;;;0.95;75.03;97452.81;5078037;28;20044;-86
2021/03/01 00:53:26;;;;;;;34.72;21.23;;;;;;;0.91;74.97;97441.34;5076838;28;20033;-86
2021/03/01 00:55:52;;;;;;;32.22;21.45;;;;;;;0.56;74.42;97376.78;5078486;28;20313;-87
2021/03/01 00:58:18;;;;;;;34.75;22.27;;;;;;;0.89;74.48;97440.91;5076810;28;20031;-86
2021/03/01 01:00:45;;;;;;;34.45;21.23;;;;;;;0.76;75.37;97412.91;5076734;28;20404;-87
2021/03/01 01:03:15;;;;;;;34.85;21.58;;;;;;;0.67;74.33;97409.75;5076834;28;20021;-86
2021/03/01 01:05:41;;;;;;;33.22;20.70;;;;;;;1.03;74.87;97464.38;5063405;28;20051;-86
2021/03/01 01:08:07;;;;;;;37.55;20.77;;;;;;;0.73;74.66;97406.38;5077665;28;20025;-86
2021/03/01 01:10:33;;;;;;;36.55;21.08;;;;;;;0.71;74.79;97407.88;5076537;28;20029;-86
2021/03/01 01:12:58;;;;;;;33.45;20.88;;;;;;;0.63;74.73;97400.91;5076508;28;20021;-86
2021/03/01 01:15:24;;;;;;;35.38;21.38;;;;;;;0.92;75.40;97456.25;5076743;28;20033;-86
2021/03/01 01:17:50;;;;;;;31.52;21.08;;;;;;;0.71;75.27;97415.91;5076531;28;20130;-86
2021/03/01 01:20:16;;;;;;;33.42;21.55;;;;;;;0.63;74.52;97403.59;5076408;28;20048;-86
2021/03/01 01:22:42;;;;;;;32.20;20.58;;;;;;;0.94;75.12;97437.91;5076479;28;20100;-86
2021/03/01 01:25:10;;;;;;;37.10;22.00;;;;;;;0.94;74.33;97431.78;5076253;28;20491;-87
2021/03/01 01:27:35;;;;;;;35.22;21.50;;;;;;;0.85;75.17;97425.97;5077380;28;20090;-86
2021/03/01 01:30:01;;;;;;;35.65;22.30;;;;;;;0.69;75.75;97402.91;5071936;28;20408;-87
2021/03/01 01:32:26;;;;;;;34.90;21.38;;;;;;;0.42;75.32;97385.41;5072849;28;20017;-86
2021/03/01 01:34:52;;;;;;;40.03;24.70;;;;;;;0.58;75.09;97403.91;5072786;28;20021;-86
2021/03/01 01:37:17;;;;;;;39.13;25.10;;;;;;;0.26;74.74;97353.56;5072871;28;20032;-86
2021/03/01 01:39:43;;;;;;;40.53;26.48;;;;;;;0.29;76.49;97387.56;5072731;28;20021;-86
2021/03/01 01:42:08;;;;;;;42.20;25.27;;;;;;;0.35;76.48;97388.03;5072635;28;20060;-86
2021/03/01 01:44:34;;;;;;;40.05;25.10;;;;;;;0.84;75.74;97454.63;5057034;28;20409;-87
2021/03/01 01:47:00;;;;;;;42.00;26.38;;;;;;;0.56;75.51;97414.22;5072529;28;20044;-86
2021/03/01 01:49:25;;;;;;;39.25;24.23;;;;;;;0.51;76.81;97401.94;5072643;28;20025;-86
2021/03/01 01:51:50;;;;;;;37.45;23.63;;;;;;;0.62;76.44;97397.47;5072409;28;20055;-87
2021/03/01 01:54:16;;;;;;;33.28;22.25;;;;;;;0.50;75.92;97363.75;5056947;28;20106;-87
2021/03/01 01:56:42;;;;;;;35.67;20.85;;;;;;;0.91;74.83;97403.88;5056901;28;20416;-86
2021/03/01 01:59:07;;;;;;;39.60;22.65;;;;;;;0.56;75.92;97356.16;5072356;28;20443;-86
2021/03/01 02:01:33;;;;;;;37.75;20.98;;;;;;;0.89;74.94;97405.38;5056943;28;20302;-86
2021/03/01 02:04:06;;;;;;;36.47;21.85;;;;;;;0.73;75.46;97376.94;5072451;28;20025;-87
2021/03/01 02:06:47;;;;;;;31.13;21.30;;;;;;;1.13;76.48;97436.94;5056872;28;20401;-85
2021/03/01 02:09:21;;;;;;;33.55;20.80;;;;;;;1.13;75.68;97442.28;5072623;28;20040;-86
2021/03/01 02:12:04;;;;;;;33.72;23.23;;;;;;;1.19;76.42;97445.41;5056542;28;20025;-86
2021/03/01 02:14:52;;;;;;;38.22;21.92;;;;;;;1.20;75.92;97434.31;5067338;28;20024;-86
2021/03/01 02:17:17;;;;;;;35.72;22.20;;;;;;;1.05;75.44;97413.91;5076677;28;20020;-86
2021/03/01 02:19:42;;;;;;;37.45;22.85;;;;;;;0.86;75.96;97384.72;5075583;28;20020;-86
2021/03/01 02:22:08;;;;;;;35.60;21.70;;;;;;;0.84;75.62;97382.41;5075649;28;20035;-86
2021/03/01 02:24:45;;;;;;;36.53;21.30;;;;;;;1.08;75.62;97409.75;5075622;28;20024;-86
2021/03/01 02:27:16;;;;;;;35.05;21.02;;;;;;;0.93;76.05;97398.91;5076490;28;20037;-86
2021/03/01 02:29:43;;;;;;;31.95;20.48;;;;;;;1.01;75.09;97413.13;5061761;28;20363;-86
2021/03/01 02:32:09;;;;;;;33.75;21.40;;;;;;;0.88;76.59;97390.47;5061799;28;20035;-86
2021/03/01 02:34:37;;;;;;;35.22;21.77;;;;;;;1.21;76.01;97437.75;5076426;28;20025;-86
2021/03/01 02:37:08;;;;;;;32.28;20.25;;;;;;;1.23;75.91;97443.53;5074963;28;20021;-86
2021/03/01 02:39:37;;;;;;;32.35;20.83;;;;;;;1.10;76.18;97424.28;5075500;28;20025;-86
2021/03/01 02:42:04;;;;;;;33.60;20.75;;;;;;;0.97;76.34;97401.63;5078491;28;20088;-86
2021/03/01 02:44:30;;;;;;;32.17;20.00;;;;;;;1.27;76.23;97452.34;5079401;28;20115;-86
2021/03/01 02:46:57;;;;;;;30.23;19.67;;;;;;;1.29;75.61;97458.88;5079309;28;20056;-86
2021/03/01 02:49:22;;;;;;;36.28;23.33;;;;;;;0.89;75.74;97398.09;5079365;28;20408;-86
2021/03/01 02:51:51;;;;;;;39.08;24.48;;;;;;;1.28;76.86;97449.31;5080098;28;20124;-86
2021/03/01 02:54:19;;;;;;;37.67;23.92;;;;;;;0.89;75.96;97384.72;5080136;28;20032;-86
2021/03/01 02:56:47;;;;;;;38.13;25.25;;;;;;;1.17;75.66;97428.94;5079486;28;20024;-86
2021/03/01 02:59:14;;;;;;;38.08;25.25;;;;;;;0.87;76.16;97375.56;5079154;28;20107;-86
2021/03/01 03:01:41;;;;;;;39.97;26.88;;;;;;;1.02;75.08;97402.06;5079047;28;20025;-86
2021/03/01 03:04:07;;;;;;;39.67;27.70;;;;;;;1.28;75.71;97438.59;5080672;28;20024;-86
2021/03/01 03:06:36;;;;;;;47.72;31.17;;;;;;;1.09;75.49;97404.03;5079945;28;20408;-86
2021/03/01 03:09:03;;;;;;;47.00;32.72;;;;;;;1.34;75.57;97428.31;5078872;28;20020;-86
2021/03/01 03:11:31;;;;;;;46.78;32.50;;;;;;;0.89;76.77;97363.34;5080454;28;20111;-86
2021/03/01 03:13:57;;;;;;;45.33;33.88;;;;;;;0.98;76.01;97371.06;5079189;28;20147;-86
2021/03/01 03:16:24;;;;;;;50.60;37.65;;;;;;;1.17;75.23;97397.59;5078880;28;20024;-86
2021/03/01 03:18:52;;;;;;;47.70;35.42;;;;;;;0.83;75.77;97350.66;5078812;28;20028;-86
2021/03/01 03:21:17;;;;;;;46.58;36.13;;;;;;;0.48;76.53;97301.06;5079834;28;20100;-86
2021/03/01 03:23:43;;;;;;;49.47;33.72;;;;;;;1.32;75.48;97430.59;5079794;28;20055;-87
2021/03/01 03:26:09;;;;;;;45.78;34.35;;;;;;;0.81;77.04;97344.94;5078611;28;20116;-86
2021/03/01 03:28:35;;;;;;;46.58;29.83;;;;;;;1.11;75.99;97417.03;5078559;28;20025;-86
2021/03/01 03:31:00;;;;;;;44.20;31.15;;;;;;;0.88;76.35;97377.09;5078556;28;20293;-86
2021/03/01 03:33:26;;;;;;;42.05;30.00;;;;;;;0.91;76.39;97384.38;5079463;28;20116;-86
2021/03/01 03:35:51;;;;;;;45.75;28.17;;;;;;;1.14;75.53;97410.94;5079461;28;20031;-86
2021/03/01 03:38:41;;;;;;;39.50;25.80;;;;;;;1.24;75.91;97426.31;5078488;28;20020;-86
2021/03/01 03:41:08;;;;;;;39.72;25.08;;;;;;;1.04;76.29;97402.44;5095681;28;20021;-86
2021/03/01 03:43:35;;;;;;;41.05;27.00;;;;;;;0.60;77.24;97327.56;5078358;28;20017;-86
2021/03/01 03:46:03;;;;;;;42.97;26.55;;;;;;;0.86;75.76;97355.28;5078365;28;20078;-86
2021/03/01 03:48:30;;;;;;;36.08;24.15;;;;;;;1.09;77.03;97400.59;5079181;28;20035;-86
2021/03/01 03:50:58;;;;;;;38.28;23.83;;;;;;;1.14;76.20;97403.69;5077982;28;20440;-87
2021/03/01 03:53:27;;;;;;;43.33;25.30;;;;;;;1.49;76.37;97438.00;5077008;28;20027;-86
2021/03/01 03:55:56;;;;;;;38.80;23.38;;;;;;;1.29;76.48;97394.63;5078155;28;20028;-86
2021/03/01 03:58:25;;;;;;;38.45;22.48;;;;;;;1.66;76.33;97443.84;5078061;28;20043;-86
2021/03/01 04:00:53;;;;;;;34.50;22.30;;;;;;;1.56;76.61;97448.00;5079066;28;20061;-86
2021/03/01 04:03:24;;;;;;;35.05;21.95;;;;;;;1.49;76.25;97446.03;5078964;28;20107;-86
2021/03/01 04:05:52;;;;;;;35.08;21.75;;;;;;;1.29;75.92;97417.97;5077908;28;20023;-86
2021/03/01 04:08:20;;;;;;;35.00;22.13;;;;;;;1.50;76.33;97455.59;5078857;28;20032;-86
2021/03/01 04:10:49;;;;;;;32.25;21.00;;;;;;;1.23;76.45;97414.09;5077851;28;20020;-86
2021/03/01 04:13:15;;;;;;;33.78;20.88;;;;;;;0.86;76.18;97374.03;5094557;28;20048;-86
2021/03/01 04:15:45;;;;;;;32.28;20.40;;;;;;;0.95;76.80;97383.25;5077644;28;20024;-86
2021/03/01 04:18:13;;;;;;;30.17;19.90;;;;;;;1.23;76.46;97425.56;5077610;28;20032;-86
2021/03/01 04:20:39;;;;;;;33.63;21.17;;;;;;;1.07;77.57;97384.13;5078577;28;20028;-86
2021/03/01 04:23:06;;;;;;;30.15;19.52;;;;;;;1.44;76.53;97419.59;5077544;28;20026;-86
2021/03/01 04:25:32;;;;;;;30.83;18.85;;;;;;;1.63;76.02;97431.19;5079070;28;20350;-85
2021/03/01 04:27:58;;;;;;;31.50;19.45;;;;;;;1.30;76.05;97377.41;5077205;28;20068;-85
2021/03/01 04:30:24;;;;;;;30.08;20.02;;;;;;;0.67;76.50;97281.38;5077371;28;20073;-85
2021/03/01 04:32:50;;;;;;;30.88;19.75;;;;;;;1.28;76.87;97378.94;5077163;28;20087;-85
2021/03/01 04:35:19;;;;;;;35.78;21.88;;;;;;;1.23;76.56;97395.34;5077002;28;20036;-86
2021/03/01 04:37:45;;;;;;;32.78;22.33;;;;;;;1.54;76.69;97440.31;5078332;28;20032;-85
2021/03/01 04:40:13;;;;;;;35.17;24.92;;;;;;;1.54;76.69;97440.31;5077182;28;20032;-86
2021/03/01 04:42:42;;;;;;;39.50;26.00;;;;;;;1.56;77.28;97459.47;5077981;28;20032;-86
2021/03/01 04:45:09;;;;;;;35.25;25.08;;;;;;;1.48;77.23;97452.50;5077046;28;20413;-86
2021/03/01 04:47:35;;;;;;;40.60;26.17;;;;;;;1.48;77.23;97452.50;5077018;28;20093;-86
2021/03/01 04:50:01;;;;;;;33.17;24.20;;;;;;;1.27;77.64;97428.25;5076859;28;20044;-86
2021/03/01 04:52:30;;;;;;;34.42;24.27;;;;;;;1.27;77.64;97428.25;5076842;28;20032;-87
2021/03/01 04:54:56;;;;;;;36.47;24.60;;;;;;;1.27;77.64;97428.25;5076962;28;20115;-86
2021/03/01 04:57:22;;;;;;;37.72;24.83;;;;;;;1.24;77.06;97397.66;5076886;28;20470;-86
2021/03/01 04:59:48;;;;;;;40.53;25.75;;;;;;;1.15;78.16;97413.25;5076706;28;20028;-86
2021/03/01 05:02:15;;;;;;;38.70;26.73;;;;;;;1.15;78.16;97413.25;5077429;28;20075;-84
2021/03/01 05:04:40;;;;;;;40.25;26.92;;;;;;;1.13;78.66;97388.78;5076924;28;20090;-84
2021/03/01 05:07:07;;;;;;;40.75;26.90;;;;;;;1.13;78.66;97388.78;5076783;28;20415;-86
2021/03/01 05:09:35;;;;;;;44.47;28.15;;;;;;;1.13;78.66;97388.78;5076620;28;20024;-86
2021/03/01 05:12:00;;;;;;;43.60;29.05;;;;;;;1.08;78.50;97399.03;5076461;28;20039;-86
2021/03/01 05:14:25;;;;;;;42.72;28.63;;;;;;;1.08;78.50;97399.03;5076593;28;20103;-86
2021/03/01 05:16:51;;;;;;;49.78;30.20;;;;;;;1.17;78.43;97402.97;5077572;28;20016;-86
2021/03/01 05:19:16;;;;;;;46.92;31.10;;;;;;;1.50;79.47;97434.19;5077502;28;20020;-86
2021/03/01 05:21:42;;;;;;;50.45;33.15;;;;;;;1.50;79.47;97434.19;5076424;28;20021;-86
2021/03/01 05:24:08;;;;;;;50.00;31.92;;;;;;;1.59;79.51;97431.16;5076536;28;20073;-88
2021/03/01 05:26:33;;;;;;;51.75;34.53;;;;;;;1.59;79.51;97431.16;5077429;28;20324;-87
2021/03/01 05:28:59;;;;;;;60.45;36.58;;;;;;;1.59;79.51;97431.16;5076428;28;20029;-85
2021/03/01 05:31:24;;;;;;;59.50;36.40;;;;;;;1.59;79.51;97431.16;5078692;28;20074;-87
2021/03/01 05:33:50;;;;;;;59.63;35.90;;;;;;;2.26;100.00;86697.16;5076891;28;20021;-89
2021/03/01 05:36:16;;;;;;;60.00;36.60;;;;;;;1.88;79.46;97413.38;5093212;28;20121;-86
2021/03/01 05:38:41;;;;;;;61.85;39.50;;;;;;;1.88;79.46;97413.38;5077168;28;20058;-86
2021/03/01 05:41:09;;;;;;;63.10;38.33;;;;;;;1.88;79.46;97413.38;5077182;28;20028;-86
2021/03/01 05:43:36;;;;;;;62.15;38.65;;;;;;;1.88;79.46;97413.38;5076082;28;20408;-87
2021/03/01 05:46:01;;;;;;;59.67;37.33;;;;;;;1.88;79.46;97413.38;5077070;28;20024;-87
2021/03/01 05:48:28;;;;;;;63.80;38.55;;;;;;;1.88;79.46;97413.38;5076055;28;20442;-85
2021/03/01 05:51:00;;;;;;;64.97;38.58;;;;;;;1.88;79.46;97413.38;5076869;28;20367;-85
2021/03/01 05:53:31;;;;;;;55.55;36.03;;;;;;;1.88;79.46;97413.38;5092740;28;20383;-86
2021/03/01 05:56:00;;;;;;;59.92;36.90;;;;;;;1.88;79.46;97413.38;5075998;28;20020;-85
2021/03/01 05:58:27;;;;;;;50.13;31.55;;;;;;;1.88;79.46;97413.38;5075866;28;20039;-87
2021/03/01 06:00:58;;;;;;;50.72;30.67;;;;;;;1.88;79.46;97413.38;5075404;28;20052;-86
2021/03/01 06:03:25;;;;;;;53.67;32.72;;;;;;;1.88;79.46;97413.38;5085112;28;20074;-85
2021/03/01 06:05:52;;;;;;;57.47;35.85;;;;;;;1.88;79.46;97413.38;5076751;28;20405;-85
2021/03/01 06:08:19;;;;;;;56.10;34.20;;;;;;;1.88;79.46;97413.38;5075526;28;20020;-85
2021/03/01 06:10:44;;;;;;;54.10;34.55;;;;;;;2.57;78.47;97455.44;5075755;28;20028;-86
2021/03/01 06:13:10;;;;;;;53.88;32.88;;;;;;;2.57;78.47;97455.44;5063362;28;20324;-85
2021/03/01 06:15:37;;;;;;;54.60;34.35;;;;;;;2.57;78.47;97455.44;5055011;28;20029;-86
2021/03/01 06:18:11;;;;;;;54.38;33.72;;;;;;;2.57;78.47;97455.44;5071865;28;20025;-87
2021/03/01 06:20:40;;;;;;;54.10;34.22;;;;;;;2.57;78.47;97455.44;5092782;28;20059;-88
2021/03/01 06:23:05;;;;;;;54.47;32.40;;;;;;;2.57;78.47;97455.44;5074443;28;20316;-88
2021/03/01 06:25:31;;;;;;;51.83;32.97;;;;;;;2.57;78.47;97455.44;5080856;28;20030;-89
2021/03/01 06:27:57;;;;;;;70.63;38.00;;;;;;;2.82;78.33;97547.50;5093092;28;20427;-88
2021/03/01 06:30:33;;;;;;;65.28;37.40;;;;;;;2.82;78.33;97547.50;5081382;28;20105;-86
2021/03/01 06:33:13;;;;;;;63.38;36.33;;;;;;;2.82;78.33;97547.50;5094749;28;20118;-88
2021/03/01 06:35:40;;;;;;;61.50;36.70;;;;;;;2.82;78.33;97547.50;5075364;28;20028;-88
2021/03/01 06:38:11;;;;;;;64.00;38.15;;;;;;;2.82;78.33;97547.50;5082607;28;20031;-88
2021/03/01 06:40:37;;;;;;;57.78;39.13;;;;;;;2.82;78.33;97547.50;5075470;28;20028;-88
2021/03/01 06:43:15;;;;;;;61.40;39.22;;;;;;;2.82;78.33;97547.50;5078271;28;20100;-88
2021/03/01 06:45:42;;;;;;;59.72;40.35;;;;;;;2.82;78.33;97547.50;5076732;28;20021;-87
2021/03/01 06:48:09;;;;;;;56.72;35.80;;;;;;;2.82;78.33;97547.50;5075306;28;20093;-87
2021/03/01 06:50:45;;;;;;;54.40;35.25;;;;;;;2.82;78.33;97547.50;5075441;28;20048;-86
2021/03/01 06:53:10;;;;;;;55.45;36.08;;;;;;;2.82;78.33;97547.50;5075557;28;20438;-88
2021/03/01 06:55:37;;;;;;;49.60;33.30;;;;;;;2.82;78.33;97547.50;5076822;28;20025;-88
2021/03/01 06:58:16;;;;;;;47.10;30.52;;;;;;;2.79;77.35;97550.94;5076934;28;20035;-87
2021/03/01 07:00:42;;;;;;;50.03;30.40;;;;;;;2.79;77.35;97550.94;5075426;28;20056;-88
2021/03/01 07:03:24;;;;;;;48.03;30.13;;;;;;;2.79;77.35;97550.94;5075037;28;20351;-88
2021/03/01 07:05:55;;;;;;;49.30;29.80;;;;;;;2.79;77.35;97550.94;5075093;28;20024;-88
2021/03/01 07:08:37;;;;;;;45.15;27.67;;;;;;;2.79;77.35;97550.94;5075040;28;20020;-85
2021/03/01 07:11:05;;;;;;;38.58;26.35;;;;;;;2.79;77.35;97550.94;5075536;28;20066;-87
2021/03/01 07:13:32;;;;;;;42.40;26.75;;;;;;;2.79;77.35;97550.94;5077996;28;20514;-86
2021/03/01 07:16:00;;;;;;;40.75;25.95;;;;;;;2.79;77.35;97550.94;5091730;28;20032;-87
2021/03/01 07:18:27;;;;;;;39.25;24.70;;;;;;;2.79;77.35;97550.94;5074842;28;20033;-87
2021/03/01 07:20:53;;;;;;;36.20;23.55;;;;;;;2.79;77.35;97550.94;5075141;28;20028;-86
2021/03/01 07:23:19;;;;;;;36.05;24.52;;;;;;;2.79;77.35;97550.94;5075129;28;20393;-87
2021/03/01 07:25:45;;;;;;;35.08;22.67;;;;;;;2.79;77.35;97550.94;5075092;28;20056;-87
2021/03/01 07:28:17;;;;;;;33.42;22.90;;;;;;;2.79;77.35;97550.94;5076678;28;20107;-88
2021/03/01 07:30:45;;;;;;;36.97;24.23;;;;;;;3.84;75.12;97590.34;5084863;28;20032;-88
2021/03/01 07:33:14;;;;;;;37.05;23.40;;;;;;;3.84;75.12;97590.34;5078317;28;20047;-86
2021/03/01 07:35:43;;;;;;;36.33;23.85;;;;;;;3.84;75.12;97590.34;5078667;28;20412;-84
2021/03/01 07:38:09;;;;;;;36.10;24.02;;;;;;;3.84;75.12;97590.34;5078375;28;20024;-85
2021/03/01 07:40:36;;;;;;;35.30;21.95;;;;;;;3.79;73.84;97604.16;5079264;28;20082;-84
2021/03/01 07:43:06;;;;;;;89.45;51.80;;;;;;;3.84;73.75;97606.47;5079424;28;20048;-85
2021/03/01 07:45:56;;;;;;;56.75;35.92;;;;;;;3.83;74.42;97607.59;5094599;28;20035;-86
2021/03/01 07:48:21;;;;;;;41.63;26.60;;;;;;;3.41;73.80;97544.59;5074173;28;20420;-85
2021/03/01 07:50:47;;;;;;;45.78;28.25;;;;;;;3.35;73.91;97541.50;5081702;28;20049;-85
2021/03/01 07:53:45;;;;;;;41.28;26.00;;;;;;;3.77;74.12;97591.06;5078710;28;20078;-85
2021/03/01 07:56:23;;;;;;;45.83;27.95;;;;;;;3.92;73.59;97614.13;5073111;28;20083;-86
2021/03/01 07:58:56;;;;;;;45.05;27.83;;;;;;;3.91;73.34;97612.59;5094816;28;20123;-88
2021/03/01 08:01:22;;;;;;;42.28;25.90;;;;;;;3.66;73.67;97572.25;5082795;28;20078;-89
2021/03/01 08:03:48;;;;;;;151.88;58.70;;;;;;;3.66;72.90;97561.50;5077353;28;20347;-87
2021/03/01 08:06:14;;;;;;;50.60;26.88;;;;;;;3.20;72.45;97483.56;5078896;28;20043;-87
2021/03/01 08:08:44;;;;;;;34.17;20.65;;;;;;;4.08;72.80;97618.38;5078816;28;20412;-86
2021/03/01 08:11:10;;;;;;;23.70;16.77;;;;;;;4.02;72.60;97615.28;5077750;28;20025;-86
2021/03/01 08:13:36;;;;;;;27.45;18.08;;;;;;;4.11;72.47;97623.00;5077476;28;20032;-86
2021/03/01 08:16:23;;;;;;;29.70;18.73;;;;;;;3.64;72.38;97569.19;5082960;28;20027;-87
2021/03/01 08:18:58;;;;;;;33.70;19.95;;;;;;;3.75;72.32;97581.88;5076904;28;20020;-87
2021/03/01 08:21:28;;;;;;;33.63;20.60;;;;;;;4.15;72.20;97629.13;5078219;28;20036;-86
2021/03/01 08:23:53;;;;;;;28.10;18.42;;;;;;;3.88;71.69;97586.47;5079916;28;20020;-87
2021/03/01 08:26:28;;;;;;;26.25;17.23;;;;;;;4.12;71.23;97603.78;5088943;28;20024;-87
2021/03/01 08:28:56;;;;;;;23.08;15.40;;;;;;;4.16;71.28;97609.16;5086958;28;20020;-87
2021/03/01 08:31:23;;;;;;;24.10;16.38;;;;;;;3.71;71.44;97538.88;5092862;28;20028;-87
2021/03/01 08:33:49;;;;;;;24.73;17.00;;;;;;;4.06;71.48;97605.31;5077876;28;20119;-87
2021/03/01 08:36:14;;;;;;;24.00;16.05;;;;;;;4.31;72.00;97656.41;5078636;28;20033;-87
2021/03/01 08:38:43;;;;;;;24.33;15.98;;;;;;;4.59;70.80;97663.69;5078153;28;20079;-87
2021/03/01 08:41:19;;;;;;;21.30;15.52;;;;;;;4.26;70.52;97646.03;5076915;28;20032;-85
2021/03/01 08:43:53;;;;;;;21.90;14.98;;;;;;;4.20;70.32;97610.66;5081199;28;20026;-86
2021/03/01 08:46:20;;;;;;;20.08;14.60;;;;;;;4.11;69.83;97590.72;5081824;28;20103;-87
2021/03/01 08:48:48;;;;;;;17.17;12.57;;;;;;;3.93;69.43;97572.66;5076881;28;20029;-87
2021/03/01 08:51:15;;;;;;;18.63;12.65;;;;;;;4.15;69.91;97619.13;5076622;28;20048;-87
2021/03/01 08:53:40;;;;;;;18.27;12.52;;;;;;;4.34;69.27;97611.81;5087507;28;20487;-87
2021/03/01 08:59:27;;;;;;;19.38;11.68;;;;;;;4.67;68.71;97621.38;5095164;28;20028;-86
2021/03/01 09:01:53;;;;;;;20.02;12.00;;;;;;;4.59;68.69;97620.66;5086023;28;20055;-87
2021/03/01 09:04:18;;;;;;;17.55;11.82;;;;;;;4.46;67.55;97590.66;5074715;28;20033;-86
2021/03/01 09:06:43;;;;;;;15.90;11.65;;;;;;;4.72;66.80;97634.44;5060102;28;20047;-88
2021/03/01 09:09:09;;;;;;;15.38;10.27;;;;;;;4.46;66.76;97597.97;5076649;28;20028;-87
2021/03/01 09:11:36;;;;;;;14.65;10.48;;;;;;;5.00;66.51;97677.44;5076304;28;20111;-88
2021/03/01 09:14:03;;;;;;;13.45;10.60;;;;;;;4.31;67.75;97556.88;5076246;28;20035;-86
2021/03/01 09:16:30;;;;;;;16.63;9.93;;;;;;;4.72;66.80;97602.16;5085577;28;20063;-87
2021/03/01 09:18:59;;;;;;;13.02;10.02;;;;;;;5.34;65.48;97693.16;5086311;28;20024;-86
2021/03/01 09:21:24;;;;;;;13.50;9.90;;;;;;;5.37;64.71;97694.28;5076235;28;20036;-86
2021/03/01 09:23:51;;;;;;;13.75;9.68;;;;;;;4.97;64.42;97619.00;5077343;28;20032;-88
2021/03/01 09:26:36;;;;;;;12.98;9.52;;;;;;;5.53;65.65;97684.56;5082268;28;20032;-87
2021/03/01 09:29:07;;;;;;;12.52;9.13;;;;;;;5.24;65.95;97637.38;5076400;28;20451;-89
2021/03/01 09:31:46;;;;;;;16.52;9.40;;;;;;;5.18;65.63;97623.53;5077425;28;20060;-88
2021/03/01 09:34:13;;;;;;;17.80;10.10;;;;;;;5.35;64.49;97634.63;5088101;28;20057;-88
2021/03/01 09:36:40;;;;;;;21.13;10.88;;;;;;;5.72;65.40;97696.06;5085665;28;20107;-88
2021/03/01 09:39:08;;;;;;;13.85;9.73;;;;;;;5.32;64.85;97638.88;5093748;28;20028;-88
2021/03/01 09:41:37;;;;;;;15.80;9.32;;;;;;;5.71;63.27;97695.28;5087942;28;20020;-88
2021/03/01 09:44:04;;;;;;;12.95;9.57;;;;;;;5.85;62.92;97699.06;5076290;28;20017;-87
2021/03/01 09:46:30;;;;;;;14.63;9.10;;;;;;;5.64;63.13;97668.34;5075788;28;20111;-88
2021/03/01 09:49:02;;;;;;;13.13;8.98;;;;;;;5.91;63.23;97697.47;5076374;28;20115;-88
2021/03/01 09:51:29;;;;;;;12.13;8.75;;;;;;;5.76;60.84;97667.16;5075113;28;20055;-88
2021/03/01 09:54:03;;;;;;;14.77;9.80;;;;;;;5.59;61.37;97630.25;5075410;28;20028;-89
2021/03/01 09:56:47;;;;;;;13.75;9.30;;;;;;;5.88;60.80;97671.31;5087100;28;20036;-89
2021/03/01 09:59:35;;;;;;;13.75;9.68;;;;;;;6.35;62.05;97696.84;5072029;28;20320;-89
2021/03/01 10:02:11;;;;;;;16.05;10.70;;;;;;;6.46;61.95;97696.78;5076226;28;20070;-88
2021/03/01 10:04:37;;;;;;;22.45;10.90;;;;;;;6.49;61.61;97699.41;5075990;28;20486;-89
2021/03/01 10:07:21;;;;;;;22.58;10.85;;;;;;;6.57;61.18;97700.16;5091761;28;20021;-89
2021/03/01 10:09:48;;;;;;;16.10;10.95;;;;;;;6.44;61.54;97659.38;5078215;28;20032;-89
2021/03/01 10:12:14;;;;;;;14.85;10.38;;;;;;;6.22;60.59;97631.78;5076170;28;20115;-88
2021/03/01 10:14:40;;;;;;;13.77;10.05;;;;;;;6.60;61.50;97693.16;5076181;28;20107;-88
2021/03/01 10:17:27;;;;;;;14.95;9.65;;;;;;;6.24;60.73;97628.72;5075496;28;20412;-89
2021/03/01 10:19:53;;;;;;;13.93;9.30;;;;;;;6.48;60.03;97646.59;5075949;28;20587;-88
2021/03/01 10:22:18;;;;;;;15.18;10.27;;;;;;;6.66;59.70;97649.16;5076071;28;20020;-89
2021/03/01 10:24:50;;;;;;;16.75;11.13;;;;;;;6.60;60.27;97623.75;5076020;28;20067;-88
2021/03/01 10:27:19;;;;;;;14.38;9.10;;;;;;;6.82;59.79;97640.53;5075697;28;20028;-89
2021/03/01 10:29:48;;;;;;;16.35;10.50;;;;;;;7.29;59.34;97700.97;5074638;28;20024;-89
2021/03/01 10:32:31;;;;;;;14.38;11.50;;;;;;;7.20;58.50;97687.19;5105111;28;20032;-90
2021/03/01 10:34:57;;;;;;;11.50;9.30;;;;;;;6.80;59.54;97659.81;5077048;28;20032;-86
2021/03/01 10:37:25;;;;;;;12.05;9.55;;;;;;;6.62;58.78;97653.81;5075397;28;20035;-86
2021/03/01 10:39:53;;;;;;;16.45;10.40;;;;;;;6.61;58.15;97619.13;5076071;28;20059;-85
2021/03/01 10:42:20;;;;;;;16.88;11.57;;;;;;;7.06;58.09;97679.22;5084763;28;20031;-85
2021/03/01 10:44:56;;;;;;;17.00;11.10;;;;;;;7.33;58.82;97692.84;5110587;28;20365;-85
2021/03/01 10:47:23;;;;;;;14.20;9.10;;;;;;;7.43;57.58;97693.88;5076557;28;20351;-85
2021/03/01 10:49:50;;;;;;;13.82;9.35;;;;;;;7.27;57.18;97641.16;5076184;28;20052;-86
2021/03/01 10:52:17;;;;;;;11.13;8.90;;;;;;;7.57;58.00;97691.03;5075278;28;20427;-85
2021/03/01 10:54:43;;;;;;;16.10;10.82;;;;;;;7.49;57.95;97670.63;5076581;28;20029;-85
2021/03/01 10:57:08;;;;;;;15.00;10.75;;;;;;;7.78;57.46;97695.41;5075646;28;20106;-86
2021/03/01 10:59:35;;;;;;;14.73;10.73;;;;;;;7.20;56.83;97606.13;5075244;28;20416;-86
2021/03/01 11:02:01;;;;;;;12.38;10.02;;;;;;;6.90;57.11;97595.28;5076822;28;20028;-85
2021/03/01 11:04:27;;;;;;;13.63;9.95;;;;;;;7.73;57.21;97693.13;5084076;28;20024;-85
2021/03/01 11:06:54;;;;;;;15.35;11.20;;;;;;;7.00;56.84;97583.59;5079717;28;20374;-85
2021/03/01 11:09:21;;;;;;;12.15;10.40;;;;;;;7.51;56.92;97652.06;5077621;28;20021;-85
2021/03/01 11:11:49;;;;;;;13.90;9.73;;;;;;;7.80;56.73;97690.31;5092060;28;20038;-85
2021/03/01 11:14:16;;;;;;;13.55;10.00;;;;;;;7.98;58.36;97684.66;5099130;28;20077;-86
2021/03/01 11:16:41;;;;;;;13.20;10.15;;;;;;;7.71;56.68;97635.97;5081087;28;20404;-86
2021/03/01 11:19:08;;;;;;;13.20;10.38;;;;;;;7.72;54.94;97626.69;5079268;28;20033;-87
2021/03/01 11:21:34;;;;;;;12.95;10.18;;;;;;;7.59;56.64;97612.97;5078836;28;20428;-87
2021/03/01 11:24:00;;;;;;;13.27;9.77;;;;;;;7.44;55.89;97571.06;5078935;28;20028;-86
2021/03/01 11:26:26;;;;;;;11.95;9.98;;;;;;;8.05;57.22;97682.63;5078727;28;20366;-89
2021/03/01 11:28:53;;;;;;;14.75;10.55;;;;;;;7.90;55.90;97645.38;5081029;28;20412;-89
2021/03/01 11:31:18;;;;;;;14.02;10.77;;;;;;;7.87;55.94;97609.84;5078739;28;20032;-89
2021/03/01 11:33:44;;;;;;;13.95;10.73;;;;;;;8.19;54.87;97657.28;5078586;28;20035;-88
2021/03/01 11:36:12;;;;;;;19.65;13.60;;;;;;;7.85;56.42;97577.03;5079211;28;20021;-89